Ana Sayfa
METAR-TAF:

METAR-TAF

Havaalanları :

Erbil Havalimanı

Erbil, Irak

Enlem: 36-14-15N, Boylam: 43-57-47E, yükseklik: 415 m

Güncel hava durumu gözlemi

Rapor saat 22:00 UTC de 1 saat ve 1 dakika önce yapıldı.
Sakin rüzgar
Sıcaklık 19°C
Nem 24%
Basınç 1019 hPa
Görüş mesafesi: 9000 m

METAR: ORER 172200Z 00000KT 9000 NSC 19/M02 Q1019 NOSIG

Saat: 02:01 (23:01 UTC)

Tahmin

Rapor saat 17:00 UTC de 6 saat ve 1 dakika önce yapıldı.
Ayın 17'si saat 18 UTC'den ayın 18'si saat 18 UTC'ye kadar geçerli Tahmin
Rüzgar değişken yönden 3 kt
Görüş mesafesi: 8000 m
4000 ft yükseklikte az bulutlu

TAF: ORER 171700Z 1718/1818 VRB03KT 8000 FEW040

4.000'den fazla havaalanı için hava durumu gözlemleri ve tahminleri (METAR ve TAF raporları).

Kullanılabilir istasyonlar harita üzerinde sarı ve kırmızı noktalarla gösterilir.

İstasyonun adını görmek için fareyi noktanın üzerinde gezdirin.

Sonrasında hava gözlem ve tahminlerini görmek için tıklayın.

Haritayı değiştirmek için: yaklaştırmak için siyah artı işaretli yeşil düğmeye ve uzaklaştırmak için de eksi işaretli düğmeye hızla tıklayın; bitişik haritalar için yeşil okları kullanın.


METAR-TAF: